Time;durP1;ratioP1;P1;durP2;ratioP2;P2;SDS_P1;SDS_P2;PMS_P1;PMS_P2;Temp;Humidity;BMP_temperature;BMP_pressure;BME280_temperature;BME280_humidity;BME280_pressure;Samples;Min_cycle;Max_cycle;Signal;HPM_P1;HPM_P2
2021/04/06 06:01:13;;;;;;;24.85;11.15;;;;;;;5.21;58.02;98500.42;1834679;77;26449;-65
2021/04/06 06:03:41;;;;;;;14.07;7.58;;;;;;;5.23;57.98;98508.06;1793684;80;21583;-66
2021/04/06 06:06:10;;;;;;;18.32;9.38;;;;;;;5.34;58.04;98503.44;1793610;80;21581;-63
2021/04/06 06:08:39;;;;;;;16.10;7.97;;;;;;;5.47;58.14;98503.02;1793622;80;21119;-67
2021/04/06 06:11:08;;;;;;;15.85;7.80;;;;;;;5.62;57.72;98496.77;1793386;80;21562;-66
2021/04/06 06:13:38;;;;;;;11.30;5.75;;;;;;;5.79;57.56;98488.58;1793361;79;21558;-61
2021/04/06 06:16:20;;;;;;;13.48;7.40;;;;;;;5.99;57.05;98493.84;1793576;80;21585;-63
2021/04/06 06:19:05;;;;;;;23.27;13.53;;;;;;;6.17;56.44;98498.92;1793714;80;21590;-66
2021/04/06 06:21:46;;;;;;;13.53;7.67;;;;;;;6.32;55.98;98495.20;1792933;80;21111;-58
2021/04/06 06:24:30;;;;;;;13.75;7.80;;;;;;;6.47;55.62;98490.53;1791596;80;21195;-69
2021/04/06 06:26:59;;;;;;;16.37;8.05;;;;;;;6.60;55.21;98499.14;1793671;80;21554;-67
2021/04/06 06:29:30;;;;;;;17.92;8.08;;;;;;;6.73;54.69;98495.56;1789903;80;21171;-66
2021/04/06 06:32:00;;;;;;;19.55;7.87;;;;;;;6.86;54.50;98497.67;1792604;79;21211;-64
2021/04/06 06:34:33;;;;;;;15.45;7.40;;;;;;;7.04;54.47;98496.69;1787847;78;21585;-64
2021/04/06 06:37:27;;;;;;;14.07;6.42;;;;;;;7.16;53.68;98496.18;1792083;80;21155;-64
2021/04/06 06:40:02;;;;;;;13.28;6.28;;;;;;;7.27;53.41;98501.53;1654858;86;21377;-65
2021/04/06 06:42:39;;;;;;;10.85;6.72;;;;;;;7.46;53.13;98493.35;1853399;77;22628;-64
2021/04/06 06:45:23;;;;;;;12.35;7.10;;;;;;;7.50;52.66;98484.72;1753819;81;21724;-65
2021/04/06 06:47:55;;;;;;;12.60;6.67;;;;;;;7.57;52.41;98484.36;1776879;81;22217;-66
2021/04/06 06:50:26;;;;;;;11.78;6.83;;;;;;;7.67;52.29;98480.28;1753748;81;21159;-69
2021/04/06 06:52:56;;;;;;;13.40;7.33;;;;;;;7.78;52.30;98483.81;1758635;81;21317;-65
2021/04/06 06:55:25;;;;;;;11.60;6.83;;;;;;;7.88;51.65;98492.19;1758672;81;21162;-67
2021/04/06 06:58:03;;;;;;;12.43;7.08;;;;;;;7.98;51.21;98493.30;1721136;82;21583;-65
2021/04/06 07:00:32;;;;;;;14.75;7.20;;;;;;;8.00;50.96;98496.03;1707123;84;21661;-66
2021/04/06 07:03:00;;;;;;;13.72;7.75;;;;;;;8.04;50.69;98500.42;1737142;82;21618;-65
2021/04/06 07:05:30;;;;;;;10.28;6.45;;;;;;;8.03;50.80;98497.50;1737492;82;21618;-66
2021/04/06 07:08:08;;;;;;;13.58;7.00;;;;;;;8.11;50.61;98509.16;1737510;82;21621;-66
2021/04/06 07:10:40;;;;;;;11.10;6.90;;;;;;;8.12;50.08;98513.38;1737800;82;21713;-68
2021/04/06 07:13:24;;;;;;;12.50;7.62;;;;;;;8.13;49.69;98510.28;1737737;82;21603;-68
2021/04/06 07:15:52;;;;;;;17.05;9.90;;;;;;;8.13;49.53;98511.09;1737768;82;21628;-67
2021/04/06 07:18:24;;;;;;;12.85;6.90;;;;;;;8.18;50.05;98515.30;1736367;82;21597;-68
2021/04/06 07:21:01;;;;;;;12.75;7.10;;;;;;;8.26;49.48;98514.42;1717139;82;21312;-66
2021/04/06 07:23:38;;;;;;;12.98;6.60;;;;;;;8.35;49.36;98520.76;1726209;82;21102;-69
2021/04/06 07:26:17;;;;;;;13.68;6.72;;;;;;;8.39;49.31;98521.23;1719492;82;21489;-68
2021/04/06 07:28:46;;;;;;;11.63;6.42;;;;;;;8.41;48.93;98528.86;1737911;82;21528;-66
2021/04/06 07:31:15;;;;;;;13.38;7.28;;;;;;;8.43;49.11;98532.91;1720556;82;21566;-66
2021/04/06 07:33:46;;;;;;;12.85;6.70;;;;;;;8.53;49.10;98535.30;1707844;82;22326;-64
2021/04/06 07:36:19;;;;;;;11.50;7.10;;;;;;;8.65;49.41;98535.22;1734359;83;21704;-66
2021/04/06 07:38:52;;;;;;;14.63;7.10;;;;;;;8.80;48.87;98540.47;1734869;83;21182;-68
2021/04/06 07:41:23;;;;;;;14.95;6.92;;;;;;;8.86;48.68;98536.66;1727171;83;21613;-67
2021/04/06 07:43:54;;;;;;;16.73;7.20;;;;;;;8.89;48.31;98538.13;1723022;82;21292;-67
2021/04/06 07:46:39;;;;;;;14.93;7.10;;;;;;;8.95;47.96;98545.74;1733921;82;21312;-66
2021/04/06 07:49:13;;;;;;;12.80;6.42;;;;;;;8.97;47.71;98534.64;1730895;82;21566;-66
2021/04/06 07:51:53;;;;;;;13.00;6.72;;;;;;;9.00;47.92;98548.60;1700400;83;21150;-71
2021/04/06 07:54:37;;;;;;;12.10;6.75;;;;;;;9.02;47.28;98548.77;1704790;83;21466;-66
2021/04/06 07:57:06;;;;;;;11.40;7.00;;;;;;;9.04;47.65;98548.09;1723063;83;21617;-63
2021/04/06 07:59:39;;;;;;;13.03;6.85;;;;;;;9.09;47.63;98547.07;1710752;83;21143;-67
2021/04/06 08:02:15;;;;;;;12.35;6.65;;;;;;;9.20;47.77;98553.66;1674691;85;21622;-69
2021/04/06 08:04:53;;;;;;;14.90;6.80;;;;;;;9.34;47.78;98555.97;1708113;83;21676;-66
2021/04/06 08:07:31;;;;;;;15.40;6.40;;;;;;;9.49;47.46;98558.09;1712521;83;21606;-65
2021/04/06 08:10:11;;;;;;;11.70;6.90;;;;;;;9.58;47.26;98557.53;1701345;83;21150;-70
2021/04/06 08:12:40;;;;;;;11.97;6.55;;;;;;;9.66;46.61;98556.12;1701845;83;21887;-74
2021/04/06 08:15:15;;;;;;;10.50;6.22;;;;;;;9.66;45.77;98549.61;1672235;83;21578;-65
2021/04/06 08:17:53;;;;;;;11.43;6.85;;;;;;;9.64;46.45;98555.02;1712333;83;21138;-72
2021/04/06 08:20:32;;;;;;;17.00;7.42;;;;;;;9.73;46.45;98553.11;1717885;83;21414;-68
2021/04/06 08:23:09;;;;;;;14.30;7.40;;;;;;;9.77;45.78;98553.08;1705597;83;21184;-68
2021/04/06 08:25:43;;;;;;;12.00;7.28;;;;;;;9.78;45.60;98552.58;1711466;83;21391;-66
2021/04/06 08:28:28;;;;;;;13.85;6.85;;;;;;;9.83;45.54;98543.23;1712739;83;21182;-68
2021/04/06 08:31:19;;;;;;;11.83;7.50;;;;;;;9.94;45.80;98547.99;1711289;83;21218;-67
2021/04/06 08:33:48;;;;;;;13.15;7.03;;;;;;;9.96;45.29;98543.39;1722935;83;21135;-66
2021/04/06 08:36:27;;;;;;;13.18;7.30;;;;;;;10.03;45.69;98543.97;1728044;83;22634;-66
2021/04/06 08:38:57;;;;;;;14.10;7.87;;;;;;;10.13;45.46;98548.42;1708215;83;21562;-70
2021/04/06 08:41:33;;;;;;;14.55;6.87;;;;;;;10.16;44.80;98553.26;1713050;80;21668;-69
2021/04/06 08:44:05;;;;;;;10.23;6.53;;;;;;;10.21;44.84;98548.30;1717026;81;21267;-66
2021/04/06 08:46:42;;;;;;;12.82;6.05;;;;;;;10.28;44.78;98544.49;1680824;83;21282;-66
2021/04/06 08:49:20;;;;;;;11.78;6.65;;;;;;;10.38;44.77;98548.44;1723720;81;21206;-68
2021/04/06 08:52:00;;;;;;;12.40;6.35;;;;;;;10.50;44.54;98542.23;1743470;81;21134;-68
2021/04/06 08:54:32;;;;;;;10.25;6.42;;;;;;;10.58;44.33;98545.22;1726345;82;21342;-67
2021/04/06 08:57:05;;;;;;;11.28;6.50;;;;;;;10.65;43.82;98538.25;1730118;82;21320;-64
2021/04/06 08:59:42;;;;;;;10.33;6.43;;;;;;;10.64;43.79;98535.33;1729837;82;21173;-66
2021/04/06 09:02:13;;;;;;;10.30;5.95;;;;;;;10.61;43.17;98535.69;1731859;81;21650;-68
2021/04/06 09:04:50;;;;;;;10.68;6.67;;;;;;;10.56;42.92;98532.35;1725670;81;21737;-66
2021/04/06 09:07:26;;;;;;;13.22;7.28;;;;;;;10.60;43.46;98537.50;1714787;84;21573;-68
2021/04/06 09:10:08;;;;;;;12.15;7.15;;;;;;;10.66;42.66;98536.75;1715586;83;21166;-65
2021/04/06 09:12:40;;;;;;;11.22;6.20;;;;;;;10.73;43.06;98532.39;1715203;83;21739;-66
2021/04/06 09:15:12;;;;;;;;;;;;;;;10.87;43.58;98530.73;1717798;84;21229;-65
2021/04/06 09:17:41;;;;;;;11.88;6.05;;;;;;;11.05;43.57;98531.09;1715455;83;20143;-64
2021/04/06 09:20:16;;;;;;;11.12;6.22;;;;;;;11.17;42.24;98527.93;1719403;81;22305;-68
2021/04/06 09:22:52;;;;;;;13.15;7.40;;;;;;;11.18;41.88;98535.61;1715127;84;21214;-68
2021/04/06 09:25:28;;;;;;;10.82;6.42;;;;;;;11.22;42.51;98537.33;1715389;84;21158;-69
2021/04/06 09:28:03;;;;;;;11.57;6.80;;;;;;;11.34;42.22;98529.27;1715588;84;21146;-66
2021/04/06 09:30:43;;;;;;;13.85;5.95;;;;;;;11.43;41.98;98535.14;1715290;84;21162;-67
2021/04/06 09:33:11;;;;;;;13.68;6.17;;;;;;;11.53;42.33;98533.00;1741898;82;21764;-65
2021/04/06 09:35:40;;;;;;;12.07;6.62;;;;;;;11.63;41.59;98531.36;1744865;82;21336;-65
2021/04/06 09:38:09;;;;;;;12.90;5.85;;;;;;;11.67;40.83;98532.07;1716353;82;21154;-65
2021/04/06 09:40:40;;;;;;;11.60;5.85;;;;;;;11.70;40.18;98526.97;1745271;81;21112;-67
2021/04/06 09:43:09;;;;;;;10.10;6.12;;;;;;;11.72;40.02;98534.12;1762983;79;21154;-67
2021/04/06 09:45:37;;;;;;;9.03;5.55;;;;;;;11.81;40.00;98536.93;1760147;79;22305;-65
2021/04/06 09:48:07;;;;;;;11.12;6.03;;;;;;;11.94;39.73;98533.56;1759387;79;21724;-64
2021/04/06 09:50:36;;;;;;;10.03;6.00;;;;;;;12.06;38.83;98541.17;1758223;80;21229;-66
2021/04/06 09:53:17;;;;;;;8.88;6.12;;;;;;;12.20;38.71;98536.28;1740429;80;21624;-65
2021/04/06 09:55:47;;;;;;;11.78;6.22;;;;;;;12.35;38.54;98537.42;1758994;80;21759;-65
2021/04/06 09:58:16;;;;;;;10.00;6.20;;;;;;;12.48;38.79;98531.41;1723744;83;21645;-67
2021/04/06 10:00:45;;;;;;;9.50;5.90;;;;;;;12.66;38.11;98541.62;1695037;85;21594;-69
2021/04/06 10:03:17;;;;;;;11.33;5.92;;;;;;;12.74;37.78;98537.22;1725674;83;21621;-70
2021/04/06 10:05:46;;;;;;;11.57;6.45;;;;;;;12.78;37.25;98537.11;1695108;85;21558;-65
2021/04/06 10:08:26;;;;;;;10.88;6.42;;;;;;;12.77;37.01;98531.56;1725668;83;21146;-66
2021/04/06 10:10:56;;;;;;;13.90;6.80;;;;;;;12.80;36.50;98545.59;1694730;85;21163;-67
2021/04/06 10:13:25;;;;;;;12.33;6.53;;;;;;;12.81;35.94;98528.86;1724442;81;21715;-65
2021/04/06 10:16:25;;;;;;;12.78;5.62;;;;;;;12.81;36.32;98534.10;1667405;85;21179;-67
2021/04/06 10:18:54;;;;;;;11.15;6.28;;;;;;;12.85;35.63;98537.91;1656686;86;21618;-65
2021/04/06 10:21:24;;;;;;;10.55;6.08;;;;;;;12.81;35.55;98535.41;1656194;86;21679;-67
2021/04/06 10:24:04;;;;;;;12.55;6.25;;;;;;;12.84;36.04;98519.27;1656730;86;21212;-63
2021/04/06 10:26:33;;;;;;;10.65;6.33;;;;;;;12.93;35.79;98523.32;1657250;86;21600;-67
2021/04/06 10:29:07;;;;;;;11.95;5.97;;;;;;;13.04;35.20;98527.13;1657007;86;21361;-67
2021/04/06 10:31:49;;;;;;;12.45;6.60;;;;;;;13.07;35.17;98523.62;1657133;86;21206;-67
2021/04/06 10:34:18;;;;;;;10.30;6.30;;;;;;;13.12;35.35;98521.70;1657418;86;21548;-66
2021/04/06 10:37:01;;;;;;;13.62;6.30;;;;;;;13.19;34.59;98523.31;1656891;86;21717;-66
2021/04/06 10:39:37;;;;;;;9.60;5.92;;;;;;;13.24;35.37;98533.23;1656543;86;21180;-63
2021/04/06 10:42:10;;;;;;;11.50;7.00;;;;;;;13.33;35.63;98533.31;1656533;86;21208;-69
2021/04/06 10:44:39;;;;;;;10.78;6.37;;;;;;;13.34;35.29;98538.05;1657671;85;21717;-67
2021/04/06 10:47:08;;;;;;;9.68;6.25;;;;;;;13.32;35.31;98530.89;1657518;86;21230;-68
2021/04/06 10:49:36;;;;;;;7.12;5.25;;;;;;;13.33;35.97;98531.19;1638665;87;21700;-68
2021/04/06 10:52:10;;;;;;;10.43;6.10;;;;;;;13.43;36.52;98530.28;1632446;87;21589;-68
2021/04/06 10:54:36;;;;;;;16.37;7.28;;;;;;;13.53;36.52;98531.95;1638481;87;21586;-62
2021/04/06 10:57:06;;;;;;;10.08;6.05;;;;;;;13.62;36.16;98528.12;1640972;87;21320;-64
2021/04/06 10:59:37;;;;;;;11.93;6.80;;;;;;;13.77;35.75;98537.56;1634091;87;21551;-68
2021/04/06 11:02:06;;;;;;;11.80;6.53;;;;;;;13.82;34.38;98533.81;1642305;87;21807;-65
2021/04/06 11:04:41;;;;;;;9.00;5.65;;;;;;;13.82;34.61;98528.06;1642881;87;21594;-65
2021/04/06 11:07:10;;;;;;;17.48;8.33;;;;;;;13.85;34.93;98522.41;1642708;87;21230;-64
2021/04/06 11:12:24;;;;;;;12.45;6.33;;;;;;;13.93;34.33;98523.99;1853634;77;22182;-66
2021/04/06 11:14:52;;;;;;;9.68;6.53;;;;;;;13.88;34.86;98518.55;1758662;81;21601;-66
2021/04/06 11:17:23;;;;;;;14.63;7.67;;;;;;;13.91;34.64;98512.39;1789973;80;21531;-67
2021/04/06 11:19:56;;;;;;;15.30;9.23;;;;;;;13.98;34.51;98512.36;1758241;81;21661;-66
2021/04/06 11:22:27;;;;;;;10.03;6.80;;;;;;;14.08;34.17;98514.52;1758663;81;21578;-66
2021/04/06 11:24:56;;;;;;;15.58;7.90;;;;;;;14.12;34.12;98500.77;1752214;81;21637;-65
2021/04/06 11:27:25;;;;;;;10.53;6.92;;;;;;;14.16;33.98;98516.42;1747477;82;21642;-65
2021/04/06 11:29:55;;;;;;;9.65;6.90;;;;;;;14.18;34.39;98515.70;1730920;82;21779;-68
2021/04/06 11:32:23;;;;;;;10.53;7.17;;;;;;;14.34;33.86;98509.13;1753119;82;21592;-67
2021/04/06 11:34:52;;;;;;;12.78;7.60;;;;;;;14.51;34.32;98508.16;1731295;83;21562;-66
2021/04/06 11:37:21;;;;;;;14.95;8.93;;;;;;;14.72;34.16;98509.63;1752822;82;21609;-65
2021/04/06 11:39:49;;;;;;;16.75;9.65;;;;;;;14.90;33.49;98512.33;1753142;82;21567;-65
2021/04/06 11:42:18;;;;;;;12.53;7.40;;;;;;;14.98;33.22;98504.70;1752958;82;21183;-71
